Time;durP1;ratioP1;P1;durP2;ratioP2;P2;SDS_P1;SDS_P2;PMS_P1;PMS_P2;Temp;Humidity;BMP_temperature;BMP_pressure;BME280_temperature;BME280_humidity;BME280_pressure;Samples;Min_cycle;Max_cycle;Signal;HPM_P1;HPM_P2
2021/08/14 00:02:23;;;;;;;12.57;4.28;;;15.30;99.90;;;;;;4998697;28;20025;-85
2021/08/14 00:04:49;;;;;;;7.07;2.95;;;15.30;99.90;;;;;;5001482;28;20026;-84
2021/08/14 00:07:14;;;;;;;8.05;3.38;;;15.30;99.90;;;;;;5000275;28;20022;-83
2021/08/14 00:09:40;;;;;;;10.55;3.90;;;15.30;99.90;;;;;;5000862;28;20048;-83
2021/08/14 00:12:06;;;;;;;8.10;3.42;;;15.20;99.90;;;;;;4998594;28;20014;-84
2021/08/14 00:14:32;;;;;;;11.18;3.95;;;15.20;99.90;;;;;;4995107;28;20045;-83
2021/08/14 00:16:58;;;;;;;5.20;3.40;;;15.20;99.90;;;;;;4998216;28;20018;-83
2021/08/14 00:19:23;;;;;;;8.63;3.80;;;15.10;99.90;;;;;;5000918;28;20030;-85
2021/08/14 00:21:49;;;;;;;8.48;3.92;;;15.10;99.90;;;;;;5000891;28;20018;-84
2021/08/14 00:24:14;;;;;;;13.27;4.22;;;15.10;99.90;;;;;;4993672;28;20053;-84
2021/08/14 00:26:40;;;;;;;7.40;3.38;;;15.10;99.90;;;;;;5000034;28;20022;-83
2021/08/14 00:29:06;;;;;;;9.25;3.47;;;15.10;99.90;;;;;;4997750;28;20026;-84
2021/08/14 00:31:31;;;;;;;10.25;3.47;;;15.10;99.90;;;;;;5002656;28;20032;-84
2021/08/14 00:33:57;;;;;;;8.10;3.53;;;15.00;99.90;;;;;;5002349;28;20439;-84
2021/08/14 00:36:23;;;;;;;13.30;3.85;;;15.00;99.90;;;;;;5005363;28;20086;-83
2021/08/14 00:38:48;;;;;;;10.75;3.40;;;15.00;99.90;;;;;;4996278;28;20050;-82
2021/08/14 00:41:14;;;;;;;10.48;3.47;;;14.90;99.90;;;;;;5003781;28;20053;-84
2021/08/14 00:43:40;;;;;;;8.63;3.63;;;14.90;99.90;;;;;;5007295;28;20030;-84
2021/08/14 00:46:06;;;;;;;6.38;3.28;;;14.90;99.90;;;;;;5003255;28;20014;-85
2021/08/14 00:48:32;;;;;;;10.13;4.25;;;14.90;99.90;;;;;;5005909;28;20551;-83
2021/08/14 00:50:58;;;;;;;9.00;3.20;;;14.90;99.90;;;;;;5003774;28;20144;-85
2021/08/14 00:53:24;;;;;;;11.02;3.70;;;14.80;99.90;;;;;;4993352;28;20046;-84
2021/08/14 00:55:51;;;;;;;10.60;3.88;;;14.80;99.90;;;;;;4992433;28;20014;-85
2021/08/14 00:58:17;;;;;;;6.65;3.45;;;14.80;99.90;;;;;;4996362;28;20478;-84
2021/08/14 01:00:43;;;;;;;8.23;3.40;;;14.80;99.90;;;;;;4998524;28;20096;-86
2021/08/14 01:03:10;;;;;;;10.63;3.38;;;14.80;99.90;;;;;;5001948;28;20756;-84
2021/08/14 01:05:43;;;;;;;8.13;3.75;;;14.80;99.90;;;;;;5000120;28;20041;-84
2021/08/14 01:08:09;;;;;;;10.05;4.20;;;14.80;99.90;;;;;;5006777;28;20030;-82
2021/08/14 01:10:35;;;;;;;10.80;3.55;;;14.70;99.90;;;;;;5001261;28;20048;-85
2021/08/14 01:13:00;;;;;;;9.05;4.13;;;14.70;99.90;;;;;;5017239;28;20018;-84
2021/08/14 01:15:27;;;;;;;5.25;3.22;;;14.70;99.90;;;;;;5003538;28;20026;-84
2021/08/14 01:17:53;;;;;;;9.57;3.35;;;14.70;99.90;;;;;;4994644;28;20073;-85
2021/08/14 01:20:21;;;;;;;12.57;4.30;;;14.70;99.90;;;;;;5005988;28;20026;-85
2021/08/14 01:22:47;;;;;;;7.18;2.83;;;14.70;99.90;;;;;;5012009;28;20030;-84
2021/08/14 01:25:12;;;;;;;7.95;3.85;;;14.70;99.90;;;;;;4999903;28;20014;-85
2021/08/14 01:27:38;;;;;;;7.18;4.32;;;14.70;99.90;;;;;;5000542;28;20014;-83
2021/08/14 01:30:05;;;;;;;7.93;3.40;;;14.70;99.90;;;;;;5003547;28;20019;-85
2021/08/14 01:35:00;;;;;;;7.03;3.15;;;14.70;99.90;;;;;;4968190;28;20047;-55
2021/08/14 01:37:27;;;;;;;12.00;4.93;;;14.70;99.90;;;;;;4969787;28;20026;-52
2021/08/14 01:39:52;;;;;;;7.75;3.83;;;14.70;99.90;;;;;;4970564;28;20510;-54
2021/08/14 01:42:18;;;;;;;6.40;3.30;;;14.60;99.90;;;;;;4970676;28;20023;-53
2021/08/14 01:44:45;;;;;;;7.95;3.88;;;14.60;99.90;;;;;;4971496;28;20033;-52
2021/08/14 01:47:10;;;;;;;8.70;4.43;;;14.60;99.90;;;;;;4971362;28;20093;-54
2021/08/14 01:49:36;;;;;;;8.30;3.45;;;14.60;99.90;;;;;;4971262;28;20496;-53
2021/08/14 01:52:13;;;;;;;8.95;3.90;;;14.60;99.90;;;;;;4971681;28;20026;-51
2021/08/14 01:54:39;;;;;;;5.68;3.00;;;14.60;99.90;;;;;;4971037;28;20425;-52
2021/08/14 01:57:05;;;;;;;6.60;3.53;;;14.60;99.90;;;;;;4971549;28;20049;-54
2021/08/14 01:59:35;;;;;;;9.02;3.58;;;14.60;99.90;;;;;;4971032;28;20035;-52
2021/08/14 02:02:02;;;;;;;10.90;3.55;;;14.70;99.90;;;;;;4971357;28;20436;-51
2021/08/14 02:04:28;;;;;;;13.48;3.78;;;14.60;99.90;;;;;;4970808;28;20057;-53
2021/08/14 02:06:54;;;;;;;9.45;4.32;;;14.70;99.90;;;;;;4971438;28;20062;-52
2021/08/14 02:09:20;;;;;;;6.70;3.50;;;14.60;99.90;;;;;;4971031;28;20023;-54
2021/08/14 02:11:45;;;;;;;10.18;4.07;;;14.60;99.90;;;;;;4970496;28;20105;-53
2021/08/14 02:14:12;;;;;;;7.22;3.13;;;14.60;99.90;;;;;;4971129;28;20031;-52
2021/08/14 02:16:38;;;;;;;8.55;3.95;;;14.60;99.90;;;;;;4970288;28;20473;-54
2021/08/14 02:19:04;;;;;;;9.73;3.28;;;14.60;99.90;;;;;;4971164;28;20030;-53
2021/08/14 02:21:30;;;;;;;10.15;3.78;;;14.60;99.90;;;;;;4970485;28;20385;-53
2021/08/14 02:23:56;;;;;;;10.73;3.83;;;14.60;99.90;;;;;;4970821;28;20563;-55
2021/08/14 02:26:22;;;;;;;7.78;3.25;;;14.60;99.90;;;;;;4971092;28;20030;-54
2021/08/14 02:28:48;;;;;;;7.45;3.75;;;14.60;99.90;;;;;;4967034;28;20019;-51
2021/08/14 02:31:14;;;;;;;12.00;4.22;;;14.60;99.90;;;;;;4970512;28;20026;-52
2021/08/14 02:33:40;;;;;;;12.60;3.42;;;14.60;99.90;;;;;;4970412;28;20027;-52
2021/08/14 02:36:07;;;;;;;7.85;2.90;;;14.60;99.90;;;;;;4970097;28;20031;-52
2021/08/14 02:38:35;;;;;;;10.35;3.63;;;14.60;99.90;;;;;;4965605;28;20110;-52
2021/08/14 02:41:02;;;;;;;8.70;3.75;;;14.60;99.90;;;;;;4970473;28;20027;-51
2021/08/14 02:43:28;;;;;;;10.93;3.92;;;14.60;99.90;;;;;;4970601;28;20101;-52
2021/08/14 02:45:53;;;;;;;9.55;3.83;;;14.60;99.90;;;;;;4970031;28;20085;-52
2021/08/14 02:48:19;;;;;;;8.95;3.42;;;14.60;99.90;;;;;;4969857;28;20481;-52
2021/08/14 02:50:46;;;;;;;10.00;3.08;;;14.50;99.90;;;;;;4965203;28;20027;-52
2021/08/14 02:53:12;;;;;;;9.45;4.07;;;14.50;99.90;;;;;;4970347;28;20026;-51
2021/08/14 02:55:40;;;;;;;6.43;3.42;;;14.50;99.90;;;;;;4969843;28;20023;-52
2021/08/14 02:58:05;;;;;;;7.25;3.22;;;14.50;99.90;;;;;;4970443;28;20094;-54
2021/08/14 03:00:31;;;;;;;7.53;3.78;;;14.50;99.90;;;;;;4969999;28;20102;-54
2021/08/14 03:02:57;;;;;;;9.75;3.72;;;14.50;99.90;;;;;;4969957;28;20552;-52
2021/08/14 03:05:22;;;;;;;9.95;4.07;;;14.50;99.90;;;;;;4969980;28;20018;-53
2021/08/14 03:07:48;;;;;;;5.40;3.35;;;14.50;99.90;;;;;;4970152;28;20026;-51
2021/08/14 03:10:14;;;;;;;7.57;3.15;;;14.50;99.90;;;;;;4969785;28;20030;-54
2021/08/14 03:12:39;;;;;;;5.40;3.47;;;14.50;99.90;;;;;;4969832;28;20107;-53
2021/08/14 03:15:07;;;;;;;5.15;3.00;;;14.50;99.90;;;;;;4969563;28;20102;-55
2021/08/14 03:17:32;;;;;;;9.10;3.03;;;14.50;99.90;;;;;;4969723;28;20029;-56
2021/08/14 03:20:01;;;;;;;11.25;4.03;;;14.50;99.90;;;;;;4969850;28;20027;-56
2021/08/14 03:22:27;;;;;;;7.55;2.90;;;14.50;99.90;;;;;;4969626;28;20102;-54
2021/08/14 03:24:52;;;;;;;6.38;2.70;;;14.40;99.90;;;;;;4969775;28;20113;-53
2021/08/14 03:27:18;;;;;;;6.38;3.25;;;14.40;99.90;;;;;;4969336;28;20026;-54
2021/08/14 03:29:44;;;;;;;4.65;2.83;;;14.40;99.90;;;;;;4970118;28;20054;-54
2021/08/14 03:32:09;;;;;;;8.02;2.90;;;14.50;99.90;;;;;;4969815;28;20384;-55
2021/08/14 03:34:35;;;;;;;7.13;3.42;;;14.40;99.90;;;;;;4969165;28;20077;-53
2021/08/14 03:37:00;;;;;;;4.70;3.35;;;14.40;99.90;;;;;;4965658;28;20342;-53
2021/08/14 03:39:26;;;;;;;9.05;3.45;;;14.50;99.90;;;;;;4967565;28;20608;-52
2021/08/14 03:41:52;;;;;;;10.02;4.03;;;14.40;99.90;;;;;;4969420;28;20030;-53
2021/08/14 03:44:17;;;;;;;7.95;3.33;;;14.40;99.90;;;;;;4961965;28;20362;-52
2021/08/14 03:46:43;;;;;;;7.00;3.60;;;14.40;99.90;;;;;;4969491;28;20447;-54
2021/08/14 03:49:08;;;;;;;7.43;3.47;;;14.40;99.90;;;;;;4969213;28;20034;-54
2021/08/14 03:51:34;;;;;;;7.32;3.80;;;14.40;99.90;;;;;;4969261;28;20059;-53
2021/08/14 03:53:59;;;;;;;5.68;3.33;;;14.40;99.90;;;;;;4966971;28;20029;-53
2021/08/14 03:56:25;;;;;;;6.40;3.20;;;14.40;99.90;;;;;;4969383;28;20029;-53
2021/08/14 03:58:51;;;;;;;8.23;3.22;;;14.40;99.90;;;;;;4969405;28;20049;-53
2021/08/14 04:01:17;;;;;;;9.85;4.25;;;14.40;99.90;;;;;;4969583;28;20019;-53
2021/08/14 04:03:42;;;;;;;7.50;3.35;;;14.40;99.90;;;;;;4969238;28;20019;-53
2021/08/14 04:06:08;;;;;;;7.53;3.75;;;14.40;99.90;;;;;;4968672;28;20462;-51
2021/08/14 04:08:33;;;;;;;5.72;2.95;;;14.40;99.90;;;;;;4969231;28;20035;-53
2021/08/14 04:10:59;;;;;;;8.55;4.05;;;14.50;99.90;;;;;;4968750;28;20031;-53
2021/08/14 04:13:25;;;;;;;10.52;3.38;;;14.50;99.90;;;;;;4969447;28;20386;-54
2021/08/14 04:15:50;;;;;;;7.95;3.15;;;14.50;99.90;;;;;;4968629;28;20109;-52
2021/08/14 04:18:16;;;;;;;9.05;3.10;;;14.50;99.90;;;;;;4978897;28;20019;-53
2021/08/14 04:20:41;;;;;;;7.30;3.50;;;14.50;99.90;;;;;;4969101;28;20045;-53
2021/08/14 04:23:07;;;;;;;6.68;3.33;;;14.50;99.90;;;;;;4968641;28;20095;-53
2021/08/14 04:25:33;;;;;;;4.18;2.83;;;14.50;99.90;;;;;;4968723;28;20023;-54
2021/08/14 04:27:58;;;;;;;6.43;3.10;;;14.60;99.90;;;;;;4968861;28;20030;-56
2021/08/14 04:30:24;;;;;;;7.70;3.50;;;14.60;99.90;;;;;;4968928;28;20501;-52
2021/08/14 04:32:51;;;;;;;10.82;4.03;;;14.60;99.90;;;;;;4967792;28;20046;-57
2021/08/14 04:35:17;;;;;;;7.32;3.50;;;14.60;99.90;;;;;;4962082;28;20023;-52
2021/08/14 04:37:43;;;;;;;10.75;3.97;;;14.60;99.90;;;;;;4969142;28;20086;-53
2021/08/14 04:40:14;;;;;;;8.02;3.50;;;14.60;99.90;;;;;;4968172;28;20038;-53
2021/08/14 04:42:40;;;;;;;10.73;3.67;;;14.70;99.90;;;;;;4968898;28;20481;-53
2021/08/14 04:45:06;;;;;;;5.43;2.80;;;14.70;99.90;;;;;;4968628;28;20098;-53
2021/08/14 04:47:32;;;;;;;4.80;2.83;;;14.70;99.90;;;;;;4968798;28;20030;-55
2021/08/14 04:49:58;;;;;;;6.68;3.22;;;14.70;99.90;;;;;;4968808;28;20085;-52
2021/08/14 04:52:23;;;;;;;6.68;3.38;;;14.80;99.90;;;;;;4965904;28;20050;-53
2021/08/14 04:54:49;;;;;;;6.72;3.85;;;14.80;99.90;;;;;;4968128;28;20485;-53
2021/08/14 04:57:14;;;;;;;6.70;3.13;;;14.80;99.90;;;;;;4963109;28;20022;-52
2021/08/14 04:59:40;;;;;;;7.53;3.45;;;14.80;99.90;;;;;;4968717;28;20027;-53
2021/08/14 05:02:05;;;;;;;9.60;3.67;;;14.90;99.90;;;;;;4968669;28;20490;-53
2021/08/14 05:04:31;;;;;;;7.35;3.58;;;14.90;99.90;;;;;;4968520;28;20023;-55
2021/08/14 05:06:57;;;;;;;10.85;4.40;;;14.90;99.90;;;;;;4968594;28;20137;-54
2021/08/14 05:09:22;;;;;;;10.52;4.57;;;14.90;99.90;;;;;;4968609;28;20022;-53
2021/08/14 05:11:48;;;;;;;7.82;3.90;;;15.00;99.90;;;;;;4969255;28;20042;-54
2021/08/14 05:14:14;;;;;;;6.40;4.30;;;15.00;99.90;;;;;;4968808;28;20484;-53
2021/08/14 05:16:39;;;;;;;7.55;3.97;;;15.00;99.90;;;;;;4968792;28;20050;-55
2021/08/14 05:19:06;;;;;;;9.30;4.15;;;15.10;99.90;;;;;;4972039;28;20026;-55
2021/08/14 05:21:33;;;;;;;7.32;3.65;;;15.10;99.90;;;;;;4971840;28;20493;-52
2021/08/14 05:23:59;;;;;;;9.63;4.00;;;15.20;99.90;;;;;;4972401;28;20061;-54
2021/08/14 05:26:25;;;;;;;8.82;4.72;;;15.20;99.90;;;;;;4972140;28;20654;-53
2021/08/14 05:28:51;;;;;;;8.30;3.50;;;15.20;99.90;;;;;;4972217;28;20612;-55
2021/08/14 05:31:16;;;;;;;8.30;3.90;;;15.30;99.90;;;;;;4971769;28;20063;-53
2021/08/14 05:33:42;;;;;;;9.30;4.07;;;15.30;99.90;;;;;;4971981;28;20035;-54
2021/08/14 05:36:10;;;;;;;8.85;4.10;;;15.40;99.90;;;;;;4972275;28;20038;-54
2021/08/14 05:38:36;;;;;;;10.70;4.65;;;15.40;99.90;;;;;;4971569;28;20019;-55
2021/08/14 05:41:02;;;;;;;10.73;4.78;;;15.50;99.90;;;;;;4971809;28;20035;-54
2021/08/14 05:43:28;;;;;;;11.10;3.90;;;15.50;99.90;;;;;;4971398;28;20554;-56
2021/08/14 05:45:54;;;;;;;9.07;4.45;;;15.60;99.90;;;;;;4971025;28;20109;-54
2021/08/14 05:48:19;;;;;;;12.93;4.15;;;15.70;99.90;;;;;;4971663;28;20023;-56
2021/08/14 05:50:46;;;;;;;10.65;3.90;;;15.70;99.90;;;;;;4971187;28;20101;-53
2021/08/14 05:53:12;;;;;;;11.15;4.22;;;15.80;99.90;;;;;;4971125;28;20023;-54
2021/08/14 05:55:38;;;;;;;7.22;3.90;;;15.80;99.90;;;;;;4970930;28;20031;-53
2021/08/14 05:58:03;;;;;;;7.00;3.92;;;15.90;99.90;;;;;;4971556;28;20370;-53
2021/08/14 06:00:32;;;;;;;12.75;3.53;;;15.90;99.90;;;;;;4971295;28;20030;-54
2021/08/14 06:02:58;;;;;;;10.07;4.10;;;16.00;99.90;;;;;;4968189;28;20397;-53
2021/08/14 06:05:23;;;;;;;7.70;4.22;;;16.00;99.90;;;;;;4971740;28;20030;-53
2021/08/14 06:07:50;;;;;;;10.80;4.13;;;16.10;99.90;;;;;;4970697;28;20053;-53
2021/08/14 06:10:17;;;;;;;8.98;4.05;;;16.10;99.90;;;;;;4971285;28;20050;-56
2021/08/14 06:12:43;;;;;;;10.82;4.35;;;16.20;99.90;;;;;;4971360;28;20046;-54
2021/08/14 06:15:09;;;;;;;6.68;3.55;;;16.20;99.90;;;;;;4971138;28;20030;-52
2021/08/14 06:17:34;;;;;;;11.80;4.00;;;16.30;99.90;;;;;;4971223;28;20281;-56
2021/08/14 06:20:00;;;;;;;9.15;4.03;;;16.30;99.90;;;;;;4971115;28;20030;-51
2021/08/14 06:22:26;;;;;;;10.68;3.78;;;16.50;99.90;;;;;;4971054;28;20025;-55
2021/08/14 06:24:53;;;;;;;11.15;3.63;;;16.50;99.90;;;;;;4970928;28;20023;-52
2021/08/14 06:27:19;;;;;;;9.77;3.10;;;16.50;99.90;;;;;;4971105;28;20051;-55
2021/08/14 06:29:45;;;;;;;7.38;3.88;;;16.70;99.90;;;;;;4970528;28;20058;-55
2021/08/14 06:32:10;;;;;;;6.55;3.58;;;16.70;99.90;;;;;;4970470;28;20027;-52
2021/08/14 06:34:36;;;;;;;13.70;3.70;;;16.80;99.90;;;;;;4969996;28;20026;-55
2021/08/14 06:37:01;;;;;;;7.28;3.40;;;16.80;99.90;;;;;;4970678;28;20397;-52
2021/08/14 06:39:27;;;;;;;8.35;3.80;;;16.90;99.90;;;;;;4970790;28;20030;-54
2021/08/14 06:41:52;;;;;;;10.13;3.17;;;16.90;99.90;;;;;;4970749;28;20120;-52
2021/08/14 06:44:21;;;;;;;9.02;4.22;;;17.00;99.90;;;;;;4970672;28;20438;-54
2021/08/14 06:46:46;;;;;;;7.60;3.55;;;17.10;99.90;;;;;;4970849;28;20041;-54
2021/08/14 06:49:12;;;;;;;7.43;3.50;;;17.10;99.90;;;;;;4970830;28;20521;-54
2021/08/14 06:51:38;;;;;;;8.25;3.35;;;17.20;99.90;;;;;;4971135;28;20019;-52
2021/08/14 06:54:04;;;;;;;7.82;3.20;;;17.30;99.90;;;;;;4971069;28;20027;-57
2021/08/14 06:56:30;;;;;;;8.57;3.15;;;17.40;99.90;;;;;;4970584;28;20019;-54
2021/08/14 06:58:56;;;;;;;9.80;3.78;;;17.40;99.90;;;;;;4970758;28;20023;-54
2021/08/14 07:01:21;;;;;;;6.85;3.47;;;17.50;99.90;;;;;;4963896;28;20018;-53
2021/08/14 07:03:47;;;;;;;7.57;3.17;;;17.60;99.90;;;;;;4970730;28;20532;-55
2021/08/14 07:06:23;;;;;;;7.90;3.53;;;17.70;99.90;;;;;;4970677;28;20040;-54
2021/08/14 07:08:49;;;;;;;10.95;3.20;;;17.80;99.90;;;;;;4970470;28;20023;-57
2021/08/14 07:11:16;;;;;;;6.97;2.90;;;17.90;99.90;;;;;;4970431;28;20025;-55
2021/08/14 07:13:42;;;;;;;12.38;3.85;;;17.90;99.90;;;;;;4970077;28;20066;-54
2021/08/14 07:16:08;;;;;;;9.35;2.80;;;18.00;99.90;;;;;;4969529;28;20022;-55
2021/08/14 07:18:34;;;;;;;5.32;2.80;;;18.00;99.90;;;;;;4970346;28;20037;-55
2021/08/14 07:20:59;;;;;;;12.93;3.75;;;18.10;99.90;;;;;;4969815;28;20026;-54
2021/08/14 07:23:25;;;;;;;8.32;2.60;;;18.20;99.90;;;;;;4969474;28;20030;-54
2021/08/14 07:25:51;;;;;;;9.60;3.60;;;18.40;99.90;;;;;;4970161;28;20041;-52
2021/08/14 07:28:18;;;;;;;7.93;3.42;;;18.50;99.90;;;;;;4968823;28;20046;-52
2021/08/14 07:30:44;;;;;;;8.48;3.58;;;18.50;99.90;;;;;;4969977;28;20084;-53
2021/08/14 07:33:10;;;;;;;7.00;2.85;;;18.60;99.90;;;;;;4962787;28;20038;-55
2021/08/14 07:35:35;;;;;;;6.43;3.17;;;18.70;99.90;;;;;;4963909;28;20027;-52
2021/08/14 07:38:01;;;;;;;7.38;2.97;;;18.80;99.90;;;;;;4969460;28;20027;-54
2021/08/14 07:40:27;;;;;;;7.60;3.03;;;19.00;99.90;;;;;;4968359;28;20071;-52
2021/08/14 07:42:54;;;;;;;7.55;3.38;;;19.20;99.90;;;;;;4969204;28;20373;-55
2021/08/14 07:45:20;;;;;;;10.68;2.47;;;19.40;99.90;;;;;;4968529;28;20029;-57
2021/08/14 07:47:48;;;;;;;7.35;3.25;;;19.60;99.90;;;;;;4967796;28;20097;-51
2021/08/14 07:50:21;;;;;;;8.82;3.53;;;19.80;99.90;;;;;;4968839;28;20025;-53
2021/08/14 07:52:47;;;;;;;6.85;3.25;;;20.00;99.90;;;;;;4964842;28;20552;-57
2021/08/14 07:55:13;;;;;;;7.10;2.50;;;20.20;99.90;;;;;;4969499;28;20062;-53
2021/08/14 07:57:40;;;;;;;6.40;2.58;;;20.40;99.90;;;;;;4969166;28;20050;-53
2021/08/14 08:00:07;;;;;;;7.78;3.38;;;20.60;99.90;;;;;;4969404;28;20027;-53
2021/08/14 08:02:33;;;;;;;8.52;3.42;;;20.80;99.90;;;;;;4969285;28;22146;-51
2021/08/14 08:04:58;;;;;;;7.00;3.45;;;20.90;99.90;;;;;;4968912;28;20023;-56
2021/08/14 08:07:24;;;;;;;9.05;3.08;;;21.10;99.90;;;;;;4964020;28;20032;-54
2021/08/14 08:09:49;;;;;;;10.13;3.92;;;21.30;99.90;;;;;;4969317;28;20029;-55
2021/08/14 08:12:15;;;;;;;7.60;3.28;;;21.40;99.90;;;;;;4969141;28;20019;-52
2021/08/14 08:14:40;;;;;;;10.15;3.13;;;21.60;99.90;;;;;;4968807;28;20055;-55
2021/08/14 08:17:06;;;;;;;7.20;2.83;;;21.70;99.90;;;;;;4962672;28;20134;-53
2021/08/14 08:19:31;;;;;;;9.57;3.40;;;21.90;99.90;;;;;;4967359;28;20050;-53
2021/08/14 08:21:57;;;;;;;10.40;3.17;;;22.10;99.90;;;;;;4968671;28;20027;-50
2021/08/14 08:24:22;;;;;;;7.38;2.50;;;22.30;99.90;;;;;;4954376;28;20031;-54
2021/08/14 08:26:48;;;;;;;6.43;2.95;;;22.40;99.90;;;;;;4957951;28;20023;-51
2021/08/14 08:29:14;;;;;;;9.13;3.17;;;22.30;99.90;;;;;;4961951;28;20038;-54
2021/08/14 08:31:39;;;;;;;9.13;3.55;;;22.40;99.90;;;;;;4954171;28;20157;-52
2021/08/14 08:34:05;;;;;;;8.90;4.18;;;22.40;99.90;;;;;;4952130;28;20081;-54
2021/08/14 08:36:30;;;;;;;12.00;3.72;;;22.30;99.90;;;;;;4955952;28;20165;-50
2021/08/14 08:38:56;;;;;;;6.97;3.20;;;22.30;99.90;;;;;;4956042;28;20532;-55
2021/08/14 08:41:21;;;;;;;7.30;3.50;;;22.30;99.90;;;;;;4963013;28;20102;-57
2021/08/14 08:43:47;;;;;;;5.18;2.42;;;22.10;99.90;;;;;;4968848;28;20061;-53
2021/08/14 08:46:13;;;;;;;7.60;2.50;;;22.10;99.90;;;;;;4968142;28;20203;-53
2021/08/14 08:48:43;;;;;;;8.30;2.95;;;22.20;99.90;;;;;;4968477;28;20027;-54
2021/08/14 08:51:11;;;;;;;10.07;3.63;;;22.30;99.90;;;;;;4969517;28;20027;-55
2021/08/14 08:53:38;;;;;;;8.52;3.65;;;22.40;99.90;;;;;;4972291;28;20081;-54
2021/08/14 08:56:04;;;;;;;6.55;2.80;;;22.50;99.90;;;;;;4971960;28;20047;-53
2021/08/14 08:58:34;;;;;;;10.02;3.40;;;22.60;99.90;;;;;;4972117;28;20023;-54
2021/08/14 09:00:59;;;;;;;6.40;2.60;;;22.60;99.90;;;;;;4971853;28;20027;-52
2021/08/14 09:03:29;;;;;;;11.13;3.72;;;22.60;99.90;;;;;;4972193;28;20049;-51
2021/08/14 09:05:56;;;;;;;8.23;3.30;;;22.70;99.90;;;;;;4971772;28;20035;-52
2021/08/14 09:08:21;;;;;;;8.23;3.20;;;22.70;99.90;;;;;;4971739;28;20022;-54
2021/08/14 09:10:48;;;;;;;10.15;3.35;;;22.70;99.90;;;;;;4971846;28;20030;-51
2021/08/14 09:13:17;;;;;;;5.88;2.75;;;22.80;99.90;;;;;;4971690;28;20063;-55
2021/08/14 09:15:43;;;;;;;10.27;3.22;;;22.80;99.90;;;;;;4971878;28;20102;-50
2021/08/14 09:18:11;;;;;;;7.57;2.42;;;22.60;99.90;;;;;;4961678;28;20019;-55
2021/08/14 09:20:54;;;;;;;6.00;2.42;;;22.60;99.90;;;;;;4981377;28;20031;-51
2021/08/14 09:23:22;;;;;;;7.90;3.08;;;22.70;99.90;;;;;;4971618;28;20050;-51
2021/08/14 09:25:53;;;;;;;7.70;2.97;;;22.70;99.90;;;;;;4971226;28;20018;-53
2021/08/14 09:28:29;;;;;;;6.40;2.50;;;22.80;99.90;;;;;;4970343;28;20031;-53
2021/08/14 09:30:57;;;;;;;8.27;3.42;;;22.90;99.90;;;;;;4971575;28;20505;-51
2021/08/14 09:33:28;;;;;;;8.68;3.00;;;23.00;99.90;;;;;;4971525;28;20023;-50
2021/08/14 09:36:15;;;;;;;6.45;2.83;;;23.00;99.90;;;;;;4971236;28;20058;-55
2021/08/14 09:38:44;;;;;;;7.47;2.83;;;23.00;99.90;;;;;;4968303;28;20505;-53
2021/08/14 09:41:20;;;;;;;5.95;2.50;;;22.80;99.90;;;;;;4968119;28;20031;-52
2021/08/14 09:43:48;;;;;;;7.47;3.35;;;22.80;99.90;;;;;;4971186;28;20382;-51
2021/08/14 09:46:14;;;;;;;8.60;2.97;;;22.90;99.90;;;;;;4970929;28;20029;-57
2021/08/14 09:48:41;;;;;;;9.48;3.28;;;22.90;99.90;;;;;;4971332;28;20414;-52
2021/08/14 09:51:32;;;;;;;10.68;3.58;;;23.00;99.90;;;;;;4971083;28;20666;-53
2021/08/14 09:54:00;;;;;;;6.35;2.78;;;23.00;99.90;;;;;;4971214;28;20371;-52
2021/08/14 09:56:27;;;;;;;6.90;3.08;;;22.90;99.90;;;;;;4953927;28;20026;-51
2021/08/14 09:58:53;;;;;;;4.65;2.45;;;22.80;99.90;;;;;;4971040;28;20038;-53
2021/08/14 10:01:19;;;;;;;6.70;3.63;;;22.80;99.90;;;;;;4971338;28;20027;-54
2021/08/14 10:03:46;;;;;;;9.55;3.30;;;22.70;99.90;;;;;;4970249;28;20041;-50
2021/08/14 10:06:13;;;;;;;6.80;3.10;;;22.80;99.90;;;;;;4968890;28;20777;-52
2021/08/14 10:08:40;;;;;;;11.88;3.47;;;22.80;99.90;;;;;;4966007;28;20081;-53
2021/08/14 10:11:10;;;;;;;7.93;3.00;;;22.90;99.90;;;;;;4971127;28;20445;-54
2021/08/14 10:13:38;;;;;;;9.05;3.33;;;23.00;99.90;;;;;;4970843;28;20033;-54
2021/08/14 10:16:04;;;;;;;9.13;3.33;;;23.10;99.90;;;;;;4970657;28;20033;-54
2021/08/14 10:18:31;;;;;;;6.93;2.97;;;23.20;99.90;;;;;;4985405;23;20050;-53
2021/08/14 10:20:56;;;;;;;7.85;3.30;;;23.10;99.90;;;;;;4970345;28;20369;-52
2021/08/14 10:23:24;;;;;;;8.07;2.97;;;23.10;99.90;;;;;;4970810;28;20026;-52
2021/08/14 10:26:14;;;;;;;10.85;3.22;;;23.00;99.90;;;;;;4970691;28;20019;-53
2021/08/14 10:28:46;;;;;;;12.85;2.95;;;22.90;99.90;;;;;;4965411;28;20600;-52
2021/08/14 10:31:30;;;;;;;8.55;3.80;;;22.80;99.90;;;;;;4964096;28;20193;-48
2021/08/14 10:34:11;;;;;;;7.20;3.33;;;22.80;99.90;;;;;;4969864;28;20027;-49
2021/08/14 10:36:39;;;;;;;8.60;2.92;;;22.60;99.90;;;;;;4964430;28;20027;-51
2021/08/14 10:39:30;;;;;;;7.03;3.25;;;22.60;99.90;;;;;;4968581;28;20472;-52
2021/08/14 10:42:04;;;;;;;8.52;3.05;;;22.70;99.90;;;;;;4962800;28;20041;-48
2021/08/14 10:44:36;;;;;;;8.30;3.05;;;22.60;99.90;;;;;;4964986;28;20054;-50
2021/08/14 10:47:03;;;;;;;6.95;3.28;;;22.50;99.90;;;;;;4966694;28;20027;-52
2021/08/14 10:49:34;;;;;;;8.75;3.58;;;22.50;99.90;;;;;;4966700;28;20027;-52
2021/08/14 10:52:03;;;;;;;8.18;3.00;;;22.60;99.90;;;;;;4957025;28;20031;-52
2021/08/14 10:54:29;;;;;;;10.02;2.90;;;22.60;99.90;;;;;;4955120;28;20019;-51
2021/08/14 10:56:54;;;;;;;9.68;3.38;;;22.50;99.90;;;;;;4966707;28;20096;-52
2021/08/14 10:59:35;;;;;;;11.13;3.58;;;22.40;99.90;;;;;;4968312;28;20097;-50
2021/08/14 11:02:01;;;;;;;8.32;3.05;;;22.30;99.90;;;;;;4970060;28;20031;-50
2021/08/14 11:04:42;;;;;;;5.35;2.70;;;22.30;99.90;;;;;;4968928;28;20025;-56
2021/08/14 11:07:19;;;;;;;5.90;2.88;;;22.40;99.90;;;;;;4969804;28;20050;-54
2021/08/14 11:10:01;;;;;;;7.43;2.78;;;22.50;99.90;;;;;;4965537;28;20040;-49
2021/08/14 11:12:43;;;;;;;6.70;2.88;;;22.50;99.90;;;;;;4964067;28;20018;-48
2021/08/14 11:15:29;;;;;;;8.85;2.92;;;22.70;99.90;;;;;;4967579;28;20022;-54
2021/08/14 11:18:00;;;;;;;9.00;3.22;;;22.80;99.90;;;;;;4969389;28;20501;-48
2021/08/14 11:20:26;;;;;;;10.50;3.28;;;22.90;99.90;;;;;;4963383;28;20465;-50
2021/08/14 11:22:56;;;;;;;8.13;3.42;;;22.90;99.90;;;;;;4969278;28;20034;-52
2021/08/14 11:25:36;;;;;;;6.00;3.35;;;23.00;99.90;;;;;;4968944;28;20031;-52
2021/08/14 11:28:05;;;;;;;5.95;2.92;;;23.00;99.90;;;;;;4962015;28;20610;-56
2021/08/14 11:30:36;;;;;;;5.38;2.95;;;23.10;99.90;;;;;;4969373;28;20186;-49
2021/08/14 11:33:08;;;;;;;8.63;3.55;;;23.10;99.90;;;;;;4967444;28;20018;-51
2021/08/14 11:35:35;;;;;;;8.18;3.28;;;23.20;99.90;;;;;;4964242;28;20026;-47
2021/08/14 11:38:03;;;;;;;9.02;3.53;;;23.30;99.90;;;;;;4968919;28;20389;-51
2021/08/14 11:40:35;;;;;;;5.97;2.90;;;23.40;99.90;;;;;;4967218;28;20030;-51
2021/08/14 11:43:04;;;;;;;6.13;3.47;;;23.40;99.90;;;;;;4968087;28;20086;-55
2021/08/14 11:45:31;;;;;;;6.72;3.20;;;23.50;99.90;;;;;;4962454;28;20363;-49
2021/08/14 11:47:59;;;;;;;6.50;3.08;;;23.60;99.90;;;;;;4969518;28;20093;-51
2021/08/14 11:50:36;;;;;;;10.38;2.90;;;23.70;99.90;;;;;;4966832;28;20666;-55
2021/08/14 11:53:03;;;;;;;10.68;3.60;;;23.70;99.90;;;;;;4969037;28;20486;-48
2021/08/14 11:55:28;;;;;;;8.20;2.92;;;23.60;99.90;;;;;;4964751;28;20023;-47
2021/08/14 11:57:54;;;;;;;6.90;3.70;;;23.50;99.90;;;;;;4967513;28;20041;-47
2021/08/14 12:00:24;;;;;;;8.07;3.53;;;23.40;99.90;;;;;;4965732;28;20027;-52
2021/08/14 12:03:03;;;;;;;6.13;2.63;;;23.30;99.90;;;;;;4965638;28;20102;-52
2021/08/14 12:05:28;;;;;;;10.02;3.38;;;23.20;99.90;;;;;;4962676;28;20058;-53
2021/08/14 12:07:54;;;;;;;9.82;3.67;;;23.10;99.90;;;;;;4964004;28;20112;-52
2021/08/14 12:10:20;;;;;;;8.52;3.80;;;23.10;99.90;;;;;;4968324;28;20026;-57
2021/08/14 12:13:04;;;;;;;7.70;3.53;;;23.10;99.90;;;;;;4964824;28;20025;-50
2021/08/14 12:15:34;;;;;;;11.45;2.75;;;23.20;99.90;;;;;;4962250;28;20023;-53
2021/08/14 12:17:59;;;;;;;16.10;3.95;;;23.20;99.90;;;;;;4966592;28;20030;-49
2021/08/14 12:20:29;;;;;;;4.88;2.70;;;23.20;99.90;;;;;;4966206;28;20026;-50
2021/08/14 12:22:54;;;;;;;4.85;3.10;;;23.10;99.90;;;;;;4968155;28;20118;-51
2021/08/14 12:25:24;;;;;;;10.50;3.28;;;22.90;99.90;;;;;;4964288;28;20027;-51
2021/08/14 12:27:50;;;;;;;4.88;3.10;;;22.80;99.90;;;;;;4965157;28;20031;-52
2021/08/14 12:30:21;;;;;;;7.60;3.45;;;22.80;99.90;;;;;;4972514;28;20030;-51
2021/08/14 12:32:48;;;;;;;8.20;3.17;;;22.70;99.90;;;;;;4972337;28;20026;-51
2021/08/14 12:35:16;;;;;;;9.02;3.72;;;22.80;99.90;;;;;;4971623;28;20029;-52
2021/08/14 12:37:42;;;;;;;6.97;3.05;;;22.80;99.90;;;;;;4968743;28;20540;-49
2021/08/14 12:40:09;;;;;;;8.90;3.72;;;22.90;99.90;;;;;;4970352;28;20117;-51
2021/08/14 12:42:36;;;;;;;8.27;3.17;;;22.90;99.90;;;;;;4972866;28;20026;-49
2021/08/14 12:45:22;;;;;;;7.85;3.25;;;22.90;99.90;;;;;;4965958;28;20037;-49
2021/08/14 12:47:49;;;;;;;8.43;4.00;;;23.00;99.90;;;;;;4962968;28;20030;-54
2021/08/14 12:50:23;;;;;;;8.40;3.60;;;23.10;99.90;;;;;;4972007;28;20051;-53